Tiempo atmosférico en la estación meteorológica de Tazacorte, Santa Cruz de Tenerife (30 m.)



Fecha
DESCASC
Temp. máxima en grados centígrados (hora)
DESCASC
Temp. mínima en grados centígrados (hora)
DESCASC
Temp. media en grados centígrados
DESCASC
Racha de viento máxima en m/sg (hora)
DESCASC
Velocidad máxima media en intervalos de 10 minutos(hora)
DESCASC
Precipitaciones diarias en mm
DESCASC
Precipitaciones de 00:00 a 06:00 en mm
DESCASC
Precipitaciones de 06:00 a 12:00 en mm
DESCASC
Precipitaciones de 12:00 a 18:00 en mm
DESCASC
Precipitaciones de 18:00 a 24:00 en mm
DESCASC
08-12-2019 22.2 (15:00) 17.5 (07:30) 19.9 11.67 (19:30) 3.89 (04:00) 0 0 0 0 0
07-12-2019 22.6 (14:40) 17 (05:40) 19.8 9.17 (20:50) 3.33 (14:40) 0 0 0 0 0
06-12-2019 22.5 (14:10) 17.6 (05:10) 20.1 5.83 (06:10) 2.78 (15:50) 0 0 0 0 0
05-12-2019 21.6 (13:20) 16.3 (00:00) 18.9 8.89 (22:10) 3.33 (14:00) 0 0 0 0 0
04-12-2019 22 (14:00) 17.3 (01:00) 19.6 9.17 (19:00) 5.28 (19:00) 0 0 0 0 0
03-12-2019 23 (14:30) 17.4 (00:00) 20.2 5 (14:30) 2.78 (14:30) 0 0 0 0 0
02-12-2019 22.6 (14:50) 17.2 (00:00) 19.9 5.83 (16:10) 2.5 (06:50) 0 0 0 0 0
01-12-2019 22.8 (13:30) 17.7 (00:00) 20.3 3.89 (17:40) 2.78 (22:10) 0 0 0 0 0
30-11-2019 24 (14:30) 17.2 (00:00) 20.6 3.61 (00:30) 1.67 (14:20) 0 0 0 0 0
29-11-2019 23.1 (14:10) 16.9 (00:00) 20 4.17 (06:50) 2.22 (04:50) 0 0 0 0 0
28-11-2019 21.9 (15:20) 17.6 (23:59) 19.8 3.61 (13:00) 2.22 (08:30) 0 0 0 0 0
27-11-2019 23 (13:10) 17.3 (00:00) 20.1 3.89 (14:20) 2.78 (06:30) 0 0 0 0 0
26-11-2019 23.5 (13:50) 17.7 (00:00) 20.6 4.17 (00:20) 2.78 (09:00) 0 0 0 0 0
25-11-2019 21.8 (12:50) 17.9 (06:00) 19.8 5 (06:10) 3.33 (06:40) 0 0 0 0 0
24-11-2019 24.2 (12:50) 17.9 (00:00) 21.1 4.72 (06:50) 3.33 (06:40) 0 0 0 0 0
23-11-2019 23.6 (15:10) 18.8 (00:00) 21.2 4.44 (16:50) 2.78 (22:40) 0 0 0 0 0
22-11-2019 22.7 (13:30) 17.5 (00:00) 20.1 4.44 (03:00) 2.78 (04:50) 0 0 0 0 0
21-11-2019 22.4 (13:10) 17 (00:00) 19.7 4.17 (02:50) 2.5 (07:10) 2.3 0 0 0.5 1.8
20-11-2019 21.7 (13:10) 17.1 (06:20) 19.4 4.17 (13:20) 2.78 (04:50) 0 0 0 0 0
19-11-2019 22.2 (13:20) 16.7 (00:00) 19.5 6.39 (18:40) 3.89 (14:40) 0 0 0 0 0
18-11-2019 23.7 (14:30) 17.5 (00:00) 20.6 10.56 (02:00) 3.61 (03:30) 0 0 0 0 0
17-11-2019 22.5 (11:20) 17.5 (00:00) 20 10.56 (16:40) 3.61 (15:00) 0 0 0 0 0
16-11-2019 23.1 (15:00) 17.8 (00:00) 20.4 15.28 (14:40) 4.17 (10:10) 0 0 0 0 0
15-11-2019 24.2 (13:20) 18.8 (00:00) 21.5 11.11 (11:40) 3.89 (21:10) 0 0 0 0 0
14-11-2019 24.3 (14:20) 18.7 (00:00) 21.5 11.39 (22:40) 3.89 (17:50) 0 0 0 0 0
13-11-2019 24.6 (14:30) 19.6 (00:00) 22.1 5 (00:50) 3.06 (00:40) 0 0 0 0 0
12-11-2019 24.5 (13:10) 18.6 (00:00) 21.6 7.78 (16:30) 4.44 (16:20) 0 0 0 0 0
11-11-2019 24.8 (14:00) 19.5 (07:50) 22.1 13.61 (01:10) 5.28 (05:50) 0 0 0 0 0

Gráficas

Temp. máximas Temp. mínimas Temp. medias Precipitaciones Rachas de viento máximas Velocidades máximas media en intervalos de 10 minutos

Datos horarios

Fecha y hora oficial Temperatura (ºC) Velocidad del viento (km/h) Dirección del viento Racha (km/h) Dirección de racha Precipitación (mm) Presión (hPa) Tendencia (hPa) Humedad (%)
2019-12-10 23:00:00 17.9 3 Este 10 Nordeste 0 1018.6 1.1 82
2019-12-10 22:00:00 17.9 5 Nordeste 14 Nordeste 0 1018.2 1 79
2019-12-10 21:00:00 17.9 4 Este 10 Este 0 1017.7 1.1 78
2019-12-10 20:00:00 18.1 5 Sudeste 9 Sudeste 0 1017.5 0.8 75
2019-12-10 19:00:00 18.1 0 Calma 6 Noroeste 0 1017.2 0.4 74
2019-12-10 18:00:00 19.4 5 Noroeste 9 Noroeste 0 1016.6 -0.4 69
2019-12-10 17:00:00 20.4 3 Oeste 9 Sudoeste 0 1016.7 -1.2 66
2019-12-10 16:00:00 21.1 5 Sudoeste 11 Sudoeste 0 1016.8 -2 63
2019-12-10 15:00:00 21.2 4 Sur 10 Sur 0 1017 -2.4 60
2019-12-10 14:00:00 21.2 5 Sudoeste 13 Oeste 0 1017.9 -1.6 63
2019-12-10 13:00:00 20.8 5 Sudoeste 11 Sudoeste 0 1018.8 -0.6 65
2019-12-10 12:00:00 20.4 4 Sudoeste 9 Sudoeste 0 1019.4 0.4 68
2019-12-10 11:00:00 19.7 4 Sur 9 Sur 0 1019.5 1 68
2019-12-10 10:00:00 18.5 4 Sudeste 11 Este 0 1019.4 1.1 72
2019-12-10 09:00:00 16.5 6 Este 14 Este 0 1019 1 74
2019-12-10 08:00:00 16.6 5 Este 16 Este 0 1018.5 0.6 73
2019-12-10 07:00:00 16.6 7 Este 14 Nordeste 0 1018.3 0 75
2019-12-10 06:00:00 16.5 7 Este 14 Este 0 1018 -0.4 76
2019-12-10 05:00:00 16.8 9 Este 18 Sudeste 0 1017.9 -0.7 76
2019-12-10 04:00:00 17.2 10 Sudeste 17 Sudeste 0 1018.3 -0.8 77
2019-12-10 03:00:00 17.2 8 Este 16 Este 0 1018.4 -1 76
2019-12-10 02:00:00 16.9 9 Este 16 Este 0 1018.6 -1 75
2019-12-10 01:00:00 17.1 6 Este 14 Este 0 1019.1 -0.4 75
2019-12-10 00:00:00 17.4 8 Este 15 Este 0 1019.4 0.1 74
2019-12-09 23:00:00 17.5 6 Este 16 Este 0 1019.6 0.6 73
2019-12-09 22:00:00 17.5 7 Este 13 Este 0 1019.5 1.2 71
2019-12-09 21:00:00 17.8 5 Este 10 Este 0 1019.3 1 72
2019-12-09 20:00:00 18.1 5 Este 9 Nordeste 0 1019 0.7 71
2019-12-09 19:00:00 18.5 3 Sudeste 8 Sur 0 1018.3 0.4 69
2019-12-09 18:00:00 19.9 4 Sur 9 Sudoeste 0 1018.3 0.3 64
2019-12-09 17:00:00 20.6 6 Noroeste 16 Noroeste 0 1018.3 -0.2 63
2019-12-09 16:00:00 21.2 9 Noroeste 18 Oeste 0 1017.9 -1.2 63
2019-12-09 15:00:00 21.8 7 Oeste 15 Oeste 0 1018 -1.9 61
2019-12-09 14:00:00 21.8 8 Noroeste 16 Noroeste 0 1018.5 -1.6 60
2019-12-09 13:00:00 22.1 5 Sur 47 Norte 0 1019.1 -1 56
2019-12-09 12:00:00 21 3 Este 39 Norte 0 1019.9 0.5 49
2019-12-09 11:00:00 20.6 4 Nordeste 31 Norte 0 1020.1 1.3 53
2019-12-09 10:00:00 19.8 4 Sudeste 32 Sudeste 0 1020.1 1.6 56
2019-12-09 09:00:00 18.5 4 Este 23 Norte 0 1019.4 1.2 54
2019-12-09 08:00:00 18.2 7 Este 24 Este 0 1018.8 0.6 59
2019-12-09 07:00:00 18.5 8 Sudeste 23 Sudeste 0 1018.5 1 59
2019-12-09 06:00:00 18.5 10 Este 25 Sudeste 0 1018.2 -0.2 67
2019-12-09 05:00:00 19 9 Este 37 Nordeste 0 1018.2 -0.4 60
2019-12-09 04:00:00 19.4 21 Norte 47 Norte 0 1017.5 -1.7 56
2019-12-09 03:00:00 19.4 13 Norte 43 Norte 0 1018.4 -1.3 56
2019-12-09 02:00:00 19.9 12 Norte 42 Norte 0 1018.6 -1 54
2019-12-09 01:00:00 19.3 4 Este 35 Norte 0 1019.2 -0.1 57
2019-12-09 00:00:00 19.3 6 Nordeste 32 Norte 0 1019.7 0.8 59
2019-12-08 23:00:00 19.8 8 Norte 31 Sudeste 0 1019.6 1 56
2019-12-08 22:00:00 19.2 6 Sudeste 30 Sudeste 0 1019.3 1.2 56
2019-12-08 21:00:00 19.9 10 Nordeste 38 Nordeste 0 1018.9 1.2 53
2019-12-08 20:00:00 19.4 4 Nordeste 42 Sudeste 0 1018.6 1.5 56
2019-12-08 19:00:00 19.9 9 Norte 26 Nordeste 0 1018.1 1 56
2019-12-08 18:00:00 20.4 5 Este 27 Sudeste 0 1017.7 0.5 55
2019-12-08 17:00:00 21.1 4 Sudoeste 21 Noroeste 0 1017.1 -0.4 63
2019-12-08 16:00:00 21.9 9 Noroeste 16 Noroeste 0 1017.1 -1.6 62
2019-12-08 15:00:00 21.7 9 Noroeste 18 Norte 0 1017.2 -1.9 58
2019-12-08 14:00:00 21 7 Oeste 18 Oeste 0 1017.5 -1.8 63
2019-12-08 13:00:00 21.6 8 Noroeste 22 Noroeste 0 1018.7 -0.6 59
2019-12-08 12:00:00 21.5 12 Noroeste 23 Noroeste 0 1019.1 0.3 54
2019-12-08 11:00:00 20 4 Norte 18 Sudeste 0 1019.3 1.1 55
2019-12-08 10:00:00 19 8 Norte 28 Nordeste 0 1019.3 1.8 56
2019-12-08 09:00:00 19 4 Sudeste 32 Sudeste 0 1018.8 1.9 55
2019-12-08 08:00:00 18.3 0 Calma 21 Noroeste 0 1018.2 1.1 54
2019-12-08 07:00:00 18.5 6 Norte 24 Norte 0 1017.5 0 57
2019-12-08 06:00:00 18 6 Sur 35 Sur 0 1016.9 -0.8 51
2019-12-08 05:00:00 18.4 10 Sudeste 31 Sudeste 0 1017.1 -0.6 54
2019-12-08 04:00:00 19 14 Nordeste 24 Nordeste 0 1017.5 -0.1 58
2019-12-08 03:00:00 19.1 9 Norte 25 Norte 0 1017.7 -0.3 51
2019-12-08 02:00:00 19.2 10 Norte 29 Norte 0 1017.7 -0.4 56
2019-12-08 01:00:00 18.9 0 Calma 19 Norte 0 1017.6 -0.3 62
2019-12-08 00:00:00 19.1 2 Norte 31 Norte 0 1018 0.3 64
2019-12-07 23:00:00 19.4 3 Este 14 Nordeste 0 1018.1 1.1 67
2019-12-07 22:00:00 19.2 5 Norte 16 Este 0 1017.9 1.4 63
2019-12-07 21:00:00 19.6 4 Este 33 Norte 0 1017.7 1.9 54
2019-12-07 20:00:00 18.9 5 Sudeste 14 Sudeste 0 1017 1.7 71
2019-12-07 19:00:00 19.8 4 Sudeste 17 Sudeste 0 1016.5 1.3 58
2019-12-07 18:00:00 20.4 3 Noroeste 31 Sur 0 1015.8 0.5 62
2019-12-07 17:00:00 21.3 6 Noroeste 23 Sur 0 1015.3 0.1 60
2019-12-07 16:00:00 22.2 5 Oeste 17 Oeste 0 1015.2 -0.8 60
2019-12-07 15:00:00 21.9 5 Oeste 20 Noroeste 0 1015.3 -1.2 61
2019-12-07 14:00:00 21.6 9 Noroeste 15 Noroeste 0 1015.2 -1.8 60
2019-12-07 13:00:00 21 2 Sur 10 Norte 0 1016 -0.6 60
2019-12-07 12:00:00 20.7 4 Noroeste 10 Oeste 0 1016.5 0.6 61
2019-12-07 11:00:00 19.9 4 Norte 10 Nordeste 0 1017 1.8 61
2019-12-07 10:00:00 18.6 4 Nordeste 12 Nordeste 0 1016.6 2 63
2019-12-07 09:00:00 18.9 3 Nordeste 10 Nordeste 0 1015.9 1.8 62
2019-12-07 08:00:00 18 2 Nordeste 9 Nordeste 0 1015.2 1 64
2019-12-07 07:00:00 17.4 3 Nordeste 11 Este 0 1014.6 0.8 65
2019-12-07 06:00:00 17.4 4 Este 15 Este 0 1014.1 0.2 67
2019-12-07 05:00:00 17.6 9 Este 14 Este 0 1014.2 0.2 66
2019-12-07 04:00:00 17.5 3 Nordeste 15 Este 0 1013.8 0.4 66
2019-12-07 03:00:00 18.1 3 Este 15 Este 0 1013.9 0.2 61
2019-12-07 02:00:00 17.8 6 Este 14 Este 0 1014 0.9 64
2019-12-07 01:00:00 18 0 Calma 13 Este 0 1013.4 0.4 63
2019-12-07 00:00:00 18.6 9 Nordeste 19 Este 0 1013.7 1.1 62
2019-12-06 23:00:00 18.9 3 Nordeste 12 Nordeste 0 1013.1 0.6 65
2019-12-06 22:00:00 18.5 0 Calma 10 Este 0 1013 1.2 64
2019-12-06 21:00:00 19.2 6 Sur 19 Sudeste 0 1012.6 1.4 65
2019-12-06 20:00:00 19.5 0 Calma 12 Sudoeste 0 1012.5 1.6 67
2019-12-06 19:00:00 19.5 5 Sur 12 Sudoeste 0 1011.8 1.2 63
2019-12-06 18:00:00 20.8 5 Sudoeste 18 Sudoeste 0 1011.2 1 59
2019-12-06 17:00:00 21.6 10 Sudoeste 18 Sudoeste 0 1010.9 0.4 58
2019-12-06 16:00:00 22.1 10 Sur 17 Sudoeste 0 1010.6 -0.4 57
2019-12-06 15:00:00 22.3 8 Sur 15 Sur 0 1010.2 -1.4 54
2019-12-06 14:00:00 22.4 4 Sur 14 Sur 0 1010.5 -1.5 56
2019-12-06 13:00:00 21.3 5 Sudoeste 12 Sur 0 1011 -0.2 59
2019-12-06 12:00:00 20.7 3 Noroeste 13 Oeste 0 1011.6 1.5 60
2019-12-06 11:00:00 20.7 4 Oeste 17 Sudoeste 0 1012 2.2 61
2019-12-06 10:00:00 19.7 5 Sur 15 Oeste 0 1011.2 2.3 64
2019-12-06 09:00:00 18.3 3 Sur 14 Sudeste 0 1010.1 1.6 65
2019-12-06 08:00:00 17.8 4 Sudeste 13 Este 0 1009.8 1.4 67
2019-12-06 07:00:00 18.4 3 Oeste 21 Sudoeste 0 1008.9 0.5 66
2019-12-06 06:00:00 18.5 6 Sur 18 Sudoeste 0 1008.5 0.2 59
2019-12-06 05:00:00 17.9 3 Sudeste 13 Este 0 1008.4 -0.1 62
2019-12-06 04:00:00 18.3 6 Este 18 Sudeste 0 1008.4 -0.3 60
2019-12-06 03:00:00 18.3 10 Sudeste 21 Sudeste 0 1008.3 -0.6 61
2019-12-06 02:00:00 18 5 Sudeste 17 Sur 0 1008.5 -0.8 61
2019-12-06 01:00:00 17.7 4 Sudeste 12 Este 0 1008.7 0 57
2019-12-06 00:00:00 19.2 9 Norte 22 Noroeste 0 1008.9 0.2 48
2019-12-05 23:00:00 19.7 9 Norte 32 Norte 0 1009.3 1.7 48
2019-12-05 22:00:00 18.8 0 Calma 21 Noroeste 0 1008.7 1.1 54
2019-12-05 21:00:00 18.3 3 Sudeste 18 Noroeste 0 1008.7 1.4 57
2019-12-05 20:00:00 18.6 3 Nordeste 15 Sudeste 0 1007.6 1.2 55
2019-12-05 19:00:00 18.9 4 Sudeste 13 Sur 0 1007.6 1.1 60
2019-12-05 18:00:00 19.8 7 Sur 18 Sur 0 1007.3 0.7 58
2019-12-05 17:00:00 20.3 8 Sur 23 Sur 0 1006.4 -0.4 61
2019-12-05 16:00:00 20.5 9 Sur 21 Sur 0 1006.5 -1.5 60
2019-12-05 15:00:00 21.3 9 Sur 23 Sur 0 1006.6 -2.2 61
2019-12-05 14:00:00 20.6 12 Sur 23 Sur 0 1006.8 -2.6 61
2019-12-05 13:00:00 21.2 5 Sur 13 Sur 0 1008 -1.2 55
2019-12-05 12:00:00 20.6 4 Sur 29 Noroeste 0 1008.8 0.1 58
2019-12-05 11:00:00 19.3 5 Noroeste 18 Noroeste 0 1009.4 1.3 62
2019-12-05 10:00:00 17.9 0 Calma 7 Noroeste 0 1009.2 1.5 62
2019-12-05 09:00:00 16.8 2 Nordeste 12 Este 0 1008.7 1.7 65
2019-12-05 08:00:00 16.5 4 Este 11 Nordeste 0 1008.1 0.9 64
2019-12-05 07:00:00 16.6 3 Nordeste 12 Norte 0 1007.7 0.3 65
2019-12-05 06:00:00 16.5 4 Este 14 Este 0 1007 -0.8 68
2019-12-05 05:00:00 16.4 0 Calma 12 Este 0 1007.2 -0.7 70
2019-12-05 04:00:00 17 3 Este 19 Noroeste 0 1007.4 -1.4 74
2019-12-05 03:00:00 17.6 3 Sudeste 9 Sudeste 0 1007.8 -1.3 81
2019-12-05 02:00:00 17.6 7 Este 14 Este 0 1007.9 -1.4 83
2019-12-05 01:00:00 17.9 6 Sudeste 16 Sudeste 0 1008.8 -1.2 87
2019-12-05 00:00:00 17.9 7 Sudeste 13 Sudeste 0 1009.1 -1.6 88
2019-12-04 23:00:00 17.7 0 Calma 10 Sudeste 0 1009.3 -0.9 88
2019-12-04 22:00:00 18.3 0 Calma 26 Noroeste 0 1010 -0.2 87
2019-12-04 21:00:00 19 8 Norte 28 Noroeste 0 1010.7 0.5 78
2019-12-04 20:00:00 18.7 0 Calma 23 Norte 0 1010.2 0.3 71
2019-12-04 19:00:00 18.5 19 Noroeste 33 Norte 0 1010.2 -0.2 74
2019-12-04 18:00:00 19.4 11 Noroeste 31 Noroeste 0 1010.2 -0.4 67
2019-12-04 17:00:00 20.7 7 Noroeste 29 Noroeste 0 1009.9 -1.1 60
2019-12-04 16:00:00 20.5 14 Noroeste 31 Noroeste 0 1010.4 -1.7 62
2019-12-04 15:00:00 21.7 9 Noroeste 21 Noroeste 0 1010.6 -2.6 55
2019-12-04 14:00:00 21.9 4 Sudoeste 21 Noroeste 0 1011 -2.8 52
2019-12-04 13:00:00 20.8 6 Noroeste 15 Oeste 0 1012.1 -1.3 57
2019-12-04 12:00:00 20.7 0 Calma 12 Oeste 0 1013.2 0.4 56
2019-12-04 11:00:00 20.5 5 Oeste 11 Oeste 0 1013.8 1.5 60
2019-12-04 10:00:00 19.3 2 Oeste 11 Este 0 1013.4 1.7 63
2019-12-04 09:00:00 18.3 6 Este 13 Sudeste 0 1012.8 1.7 62
2019-12-04 08:00:00 18 7 Este 12 Este 0 1012.3 1 62
2019-12-04 07:00:00 18.1 4 Este 14 Este 0 1011.7 0.2 58
2019-12-04 06:00:00 18 5 Este 15 Este 0 1011.1 -0.6 56
2019-12-04 05:00:00 18.3 4 Este 10 Este 0 1011.3 -0.7 58
2019-12-04 04:00:00 18.3 7 Este 12 Este 0 1011.5 -0.6 63
2019-12-04 03:00:00 18.5 4 Este 10 Este 0 1011.7 -0.4 62
2019-12-04 02:00:00 18.1 8 Este 14 Este 0 1012 -0.4 60
2019-12-04 01:00:00 17.4 9 Este 13 Este 0 1012.1 -0.1 62
2019-12-04 00:00:00 17.6 6 Este 14 Este 0 1012.1 0 61
2019-12-03 23:00:00 17.9 5 Este 12 Este 0 1012.4 0.9 61
2019-12-03 22:00:00 18.5 4 Este 9 Este 0 1012.2 1.4 66
2019-12-03 21:00:00 19 0 Calma 6 Sudeste 0 1012.1 1.7 66
2019-12-03 20:00:00 19.4 3 Sudeste 12 Sudeste 0 1011.5 1.3 62
2019-12-03 19:00:00 19.8 4 Sudeste 13 Sudeste 0 1010.8 0.9 60
2019-12-03 18:00:00 20.3 5 Sur 13 Sur 0 1010.4 0.6 58
2019-12-03 17:00:00 21.5 7 Sudoeste 15 Sur 0 1010.2 0.4 54
2019-12-03 16:00:00 21.8 7 Sur 17 Sur 0 1009.9 -0.3 53
2019-12-03 15:00:00 22.4 9 Sur 18 Sur 0 1009.8 -0.8 53
2019-12-03 14:00:00 21.8 8 Sur 15 Sur 0 1009.8 -0.9 54
2019-12-03 13:00:00 21.5 4 Sur 11 Sudoeste 0 1010.2 -0.1 54
2019-12-03 12:00:00 21.2 4 Oeste 10 Oeste 0 1010.6 0.7 57
2019-12-03 11:00:00 20.6 4 Sudoeste 9 Sudoeste 0 1010.7 1.1 60
2019-12-03 10:00:00 19.8 3 Sur 10 Sur 0 1010.3 1.3 64
2019-12-03 09:00:00 18.4 0 Calma 9 Este 0 1009.9 1.6 67
2019-12-03 08:00:00 17.9 4 Este 10 Este 0 1009.6 1.7 67
2019-12-03 07:00:00 17.9 5 Este 13 Este 0 1009 0.9 68
2019-12-03 06:00:00 17.5 8 Este 12 Este 0 1008.3 0.2 67
2019-12-03 05:00:00 17.9 3 Sudeste 10 Sudeste 0 1007.9 -0.5 68
2019-12-03 04:00:00 17.8 0 Calma 7 Este 0 1008.1 -0.5 70
2019-12-03 03:00:00 17.9 5 Este 10 Este 0 1008.1 -1 71
2019-12-03 02:00:00 17.8 4 Este 10 Este 0 1008.4 -1 67
2019-12-03 01:00:00 18 4 Este 11 Nordeste 0 1008.6 -1 68
2019-12-03 00:00:00 17.8 7 Este 12 Este 0 1009.1 -0.3 69
2019-12-02 23:00:00 18.2 5 Sudeste 12 Este 0 1009.4 -0.1 73
2019-12-02 22:00:00 17.9 5 Este 9 Este 0 1009.6 0.7 67
2019-12-02 21:00:00 18.7 4 Este 14 Sudoeste 0 1009.4 0.8 72
2019-12-02 20:00:00 19.3 3 Oeste 9 Oeste 0 1009.5 0.8 69
2019-12-02 19:00:00 19.5 6 Sudeste 15 Sur 0 1008.9 0.2 63
2019-12-02 18:00:00 20.6 8 Sur 15 Sur 0 1008.6 -0.2 58
2019-12-02 17:00:00 21.4 6 Sur 21 Sudeste 0 1008.7 -0.8 56
2019-12-02 16:00:00 21.8 6 Sudoeste 17 Sur 0 1008.7 -1.5 56
2019-12-02 15:00:00 22.4 8 Sudoeste 19 Sur 0 1008.8 -2.3 54
2019-12-02 14:00:00 22.2 4 Sudoeste 17 Sur 0 1009.5 -2.3 56
2019-12-02 13:00:00 22 8 Sur 18 Sur 0 1010.2 -1.7 62
2019-12-02 12:00:00 22 8 Sur 20 Sur 0 1011.1 -0.7 62
2019-12-02 11:00:00 21.2 6 Sur 16 Sur 0 1011.8 0.5 68
2019-12-02 10:00:00 19.7 0 Calma 6 Este 0 1011.9 0.7 71
2019-12-02 09:00:00 18.5 5 Este 13 Este 0 1011.8 0.5 69
2019-12-02 08:00:00 17.5 9 Este 14 Este 0 1011.3 -0.2 70
2019-12-02 07:00:00 17.4 9 Este 15 Este 0 1011.2 -0.8 71
2019-12-02 06:00:00 17.4 9 Este 13 Este 0 1011.3 -0.8 72
2019-12-02 05:00:00 17.8 8 Este 13 Este 0 1011.5 -0.5 73
2019-12-02 04:00:00 18.5 7 Este 13 Este 0 1012 -0.2 74
2019-12-02 03:00:00 18.3 7 Nordeste 12 Este 0 1012.1 -0.4 74
2019-12-02 02:00:00 18 8 Este 11 Nordeste 0 1012 -0.6 71
2019-12-02 01:00:00 18.5 7 Este 13 Este 0 1012.2 -0.6 71
2019-12-02 00:00:00 18.6 8 Sudeste 14 Este 0 1012.5 -0.1 75
2019-12-01 23:00:00 18.7 8 Este 14 Nordeste 0 1012.6 0.3 74
2019-12-01 22:00:00 18.8 9 Este 13 Este 0 1012.8 0.5 76
2019-12-01 21:00:00 19.1 5 Este 9 Este 0 1012.6 0.4 83
2019-12-01 20:00:00 19.2 4 Sudeste 8 Sudeste 0 1012.3 0.6 84
2019-12-01 19:00:00 20 0 Calma 12 Norte 0 1012.3 0.7 80
2019-12-01 18:00:00 20.7 7 Noroeste 14 Norte 0 1012.2 0.3 76
2019-12-01 17:00:00 21.5 5 Noroeste 10 Norte 0 1011.7 -0.6 77
2019-12-01 16:00:00 21.9 4 Sur 13 Sur 0 1011.6 -1.3 79
2019-12-01 15:00:00 22.3 6 Sur 13 Sur 0 1011.9 -1.9 78
2019-12-01 14:00:00 22.6 5 Sudoeste 12 Oeste 0 1012.3 -1.7 78
2019-12-01 13:00:00 22.3 4 Noroeste 12 Oeste 0 1012.9 -0.9 75
2019-12-01 12:00:00 22 4 Sudoeste 9 Sur 0 1013.8 0.8 78
2019-12-01 11:00:00 21.2 5 Sur 9 Sur 0 1014 1.7 86
2019-12-01 10:00:00 20.1 0 Calma 9 Nordeste 0 1013.8 1.5 90
2019-12-01 09:00:00 18.9 6 Nordeste 11 Nordeste 0 1013 1.3 92
2019-12-01 08:00:00 17.9 4 Nordeste 9 Este 0 1012.3 0.6 93
2019-12-01 07:00:00 18.6 5 Este 10 Este 0 1012.3 0.6 94
2019-12-01 06:00:00 18 6 Este 9 Este 0 1011.7 -0.2 90
2019-12-01 05:00:00 18 5 Este 8 Este 0 1011.7 -0.4 85
2019-12-01 04:00:00 18.3 4 Nordeste 11 Este 0 1011.7 -0.6 86
2019-12-01 03:00:00 18.2 5 Este 9 Este 0 1011.9 -0.7 89
2019-12-01 02:00:00 18.4 4 Este 11 Este 0 1012.1 -0.6 88
2019-12-01 01:00:00 18.6 5 Este 10 Este 0 1012.3 -0.4 87
2019-12-01 00:00:00 18.8 4 Este 10 Este 0 1012.6 -0.1 86
2019-11-30 23:00:00 19.3 4 Nordeste 11 Este 0 1012.7 0.3 87
2019-11-30 22:00:00 19.3 3 Nordeste 7 Este 0 1012.7 0.8 85
2019-11-30 21:00:00 19.5 0 Calma 5 Nordeste 0 1012.7 1.2 88
2019-11-30 20:00:00 19.9 0 Calma 3 Norte 0 1012.4 1.2 88
2019-11-30 19:00:00 20.8 0 Calma -- -- 0 1011.9 0.9 84
2019-11-30 18:00:00 21.8 0 Calma 6 Sudoeste 0 1011.5 0.3 79
2019-11-30 17:00:00 23 3 Sudoeste 8 Sudoeste 0 1011.2 -0.2 70
2019-11-30 16:00:00 23.4 4 Sudoeste 8 Sudoeste 0 1011 -0.8 66
2019-11-30 15:00:00 23.9 5 Sudoeste 12 Oeste 0 1011.2 -1.1 63
2019-11-30 14:00:00 23.7 5 Oeste 10 Oeste 0 1011.4 -1.4 63
2019-11-30 13:00:00 23.3 4 Sudoeste 9 Oeste 0 1011.8 -0.4 66
2019-11-30 12:00:00 22.6 3 Sudoeste 8 Noroeste 0 1012.3 0.8 74
2019-11-30 11:00:00 21.3 2 Noroeste 6 Noroeste 0 1012.8 1.8 86
2019-11-30 10:00:00 20.6 3 Noroeste 9 Noroeste 0 1012.2 1.5 87
2019-11-30 09:00:00 18.9 3 Nordeste 7 Nordeste 0 1011.5 1.6 79
2019-11-30 08:00:00 18.1 4 Este 8 Este 0 1011 1.2 68
2019-11-30 07:00:00 17.9 4 Este 8 Este 0 1010.7 0.6 66
2019-11-30 06:00:00 18.5 3 Nordeste 9 Nordeste 0 1009.9 -0.6 67
2019-11-30 05:00:00 17.7 2 Nordeste 9 Este 0 1009.8 -0.7 55
2019-11-30 04:00:00 18 2 Este 9 Este 0 1010.1 -0.2 59
2019-11-30 03:00:00 18.5 3 Este 9 Norte 0 1010.5 -0.1 66
2019-11-30 02:00:00 18.7 4 Nordeste 9 Este 0 1010.5 -0.2 71
2019-11-30 01:00:00 18.4 3 Este 13 Nordeste 0 1010.3 -0.3 64
2019-11-30 00:00:00 18.4 3 Este 12 Este 0 1010.6 0.6 79
2019-11-29 23:00:00 18.8 4 Este 15 Sudeste 0 1010.7 1.1 77
2019-11-29 22:00:00 18.9 2 Este 10 Nordeste 0 1010.6 1.3 76
2019-11-29 21:00:00 19 3 Norte 7 Nordeste 0 1010 1 78
2019-11-29 20:00:00 19.3 2 Sudeste 9 Sudeste 0 1009.6 0.7 85
2019-11-29 19:00:00 19.8 3 Sudeste 10 Sur 0 1009.3 0.5 81
2019-11-29 18:00:00 21 4 Sur 9 Sur 0 1009 0.6 73
2019-11-29 17:00:00 21.7 3 Oeste 12 Noroeste 0 1008.9 0.1 68
2019-11-29 16:00:00 22.1 7 Noroeste 13 Oeste 0 1008.8 -1.2 67
2019-11-29 15:00:00 22.8 4 Noroeste 11 Noroeste 0 1008.4 -2 59
2019-11-29 14:00:00 22.9 5 Sur 11 Sur 0 1008.8 -1.7 60
2019-11-29 13:00:00 22.4 5 Sudoeste 10 Noroeste 0 1010 0 64
2019-11-29 12:00:00 21.7 5 Noroeste 11 Noroeste 0 1010.4 0.8 69
2019-11-29 11:00:00 20.7 4 Noroeste 10 Noroeste 0 1010.5 1.4 78
2019-11-29 10:00:00 19.6 0 Calma 10 Este 0 1010 1.5 87
2019-11-29 09:00:00 17.8 5 Este 10 Este 0 1009.6 1.3 89
2019-11-29 08:00:00 17.3 7 Este 15 Nordeste 0 1009.1 0.7 86
2019-11-29 07:00:00 17.1 5 Este 15 Este 0 1008.5 -0.2 86
2019-11-29 06:00:00 17.1 5 Este 9 Este 0 1008.3 -0.5 83
2019-11-29 05:00:00 17.1 7 Este 10 Este 0 1008.4 -0.7 82
2019-11-29 04:00:00 17.2 8 Este 10 Este 0 1008.7 -0.5 81
2019-11-29 03:00:00 17.5 5 Este 9 Este 0 1008.8 -0.4 82
2019-11-29 02:00:00 17.6 5 Este 8 Este 0 1009.1 -0.4 82
2019-11-29 01:00:00 17.7 5 Este 10 Este 0 1009.2 -0.2 75
2019-11-29 00:00:00 17.7 5 Nordeste 9 Este 0 1009.2 0 79
2019-11-28 23:00:00 17.9 4 Este 9 Este 0 1009.5 0.9 79
2019-11-28 22:00:00 18.1 4 Este 8 Este 0 1009.4 1.3 79
2019-11-28 21:00:00 18.4 4 Este 7 Este 0 1009.2 1 79
2019-11-28 20:00:00 18.6 4 Este 6 Este 0 1008.6 0.3 80
2019-11-28 19:00:00 19 0 Calma 3 Sudoeste 0 1008.1 -0.1 77
2019-11-28 18:00:00 19.9 2 Noroeste 9 Noroeste 0 1008.2 0 74
2019-11-28 17:00:00 20.9 0 Calma 7 Oeste 0 1008.3 -0.8 71
2019-11-28 16:00:00 21.6 2 Oeste 9 Oeste 0 1008.2 -1.6 70
2019-11-28 15:00:00 21.7 0 Calma 9 Noroeste 0 1008.2 -2.6 71
2019-11-28 14:00:00 21.1 2 Noroeste 10 Noroeste 0 1009.1 -1.9 72
2019-11-28 13:00:00 21.4 5 Noroeste 13 Noroeste 0 1009.8 -1 71
2019-11-28 12:00:00 21.4 4 Oeste 10 Oeste 0 1010.8 0.7 70
2019-11-28 11:00:00 20.7 2 Sudoeste 8 Sudoeste 0 1011 1.3 72
2019-11-28 10:00:00 19.8 0 Calma 6 Este 0 1010.8 1.7 73
2019-11-28 09:00:00 18.3 5 Este 12 Este 0 1010.1 1.3 75
2019-11-28 08:00:00 18 6 Este 12 Este 0 1009.7 0.9 74
2019-11-28 07:00:00 18.9 4 Este 9 Este 0 1009.1 0.4 74
2019-11-28 06:00:00 19.2 3 Este 5 Este 0 1008.8 -0.1 77
2019-11-28 05:00:00 19.1 3 Este 8 Este 0 1008.8 -0.5 77
2019-11-28 04:00:00 18.8 4 Este 7 Este 0 1008.7 -1.1 78
2019-11-28 03:00:00 18.4 4 Este 8 Este 0 1008.9 -1.4 79
2019-11-28 02:00:00 18.9 0 Calma 5 Sudeste 0 1009.3 -1.1 79
2019-11-28 01:00:00 19.4 0 Calma 4 Este 0 1009.8 -0.5 78
2019-11-28 00:00:00 19.5 0 Calma 8 Este 0 1010.3 -0.1 75
2019-11-27 23:00:00 19.4 3 Este 8 Este 0 1010.4 0.4 75
2019-11-27 22:00:00 19.8 3 Nordeste 6 Nordeste 0 1010.3 0.9 76
2019-11-27 21:00:00 20 0 Calma 4 Noroeste 0 1010.4 1.1 75
2019-11-27 20:00:00 20.3 0 Calma 3 Noroeste 0 1010 1 74
2019-11-27 19:00:00 20.4 0 Calma 5 Oeste 0 1009.4 0.3 73
2019-11-27 18:00:00 21.2 2 Oeste 9 Oeste 0 1009.3 0 71
2019-11-27 17:00:00 22.1 4 Oeste 10 Oeste 0 1009 -0.7 67
2019-11-27 16:00:00 22.6 4 Oeste 12 Noroeste 0 1009.1 -1.5 66
2019-11-27 15:00:00 22.5 5 Noroeste 14 Noroeste 0 1009.3 -2 66
2019-11-27 14:00:00 22 5 Noroeste 12 Noroeste 0 1009.7 -1.9 66
2019-11-27 13:00:00 22.7 4 Sudoeste 9 Sudoeste 0 1010.6 -0.8 66
2019-11-27 05:00:00 17.6 8 Este 9 Este 0 1009.4 -0.7 75
2019-11-27 04:00:00 17.7 5 Este 10 Este 0 1009.5 -1 74
2019-11-27 03:00:00 17.8 6 Este 10 Este 0 1009.6 -1.6 72
2019-11-27 02:00:00 18 6 Este 13 Este 0 1010.1 -1.2 72
2019-11-27 01:00:00 18 8 Este 14 Este 0 1010.5 -0.6 74
2019-11-27 00:00:00 18.1 7 Este 10 Este 0 1011.2 0.5 75
2019-11-26 23:00:00 18.4 6 Este 12 Este 0 1011.3 0.9 74
2019-11-26 22:00:00 18.6 7 Nordeste 10 Nordeste 0 1011.1 1.2 74
2019-11-26 21:00:00 18.8 5 Este 7 Nordeste 0 1010.7 0.8 74
2019-11-26 20:00:00 18.9 0 Calma 3 Este 0 1010.4 0.6 74
2019-11-26 19:00:00 19.6 0 Calma 3 Noroeste 0 1009.9 -0.1 69
2019-11-26 18:00:00 20.7 2 Oeste 8 Sudoeste 0 1009.9 0.2 64
2019-11-26 17:00:00 21.5 3 Sudoeste 10 Sudoeste 0 1009.8 -0.6 60
2019-11-26 16:00:00 22.2 4 Sudoeste 12 Sur 0 1010 -1.3 57
2019-11-26 15:00:00 22.6 5 Sudoeste 12 Sudoeste 0 1009.7 -2.2 56
2019-11-26 14:00:00 23.2 5 Sudoeste 11 Sudoeste 0 1010.4 -2 56
2019-11-26 13:00:00 22.7 6 Noroeste 14 Oeste 0 1011.3 -0.7 56
2019-11-26 12:00:00 21.7 7 Noroeste 11 Oeste 0 1011.9 0.6 57
2019-11-26 11:00:00 21 4 Oeste 10 Noroeste 0 1012.4 1.6 59
2019-11-26 10:00:00 20.3 4 Nordeste 13 Este 0 1012 1.6 60
2019-11-26 09:00:00 18.3 10 Este 14 Este 0 1011.3 1.4 68
2019-11-26 08:00:00 17.9 7 Este 13 Este 0 1010.8 0.6 67
2019-11-26 07:00:00 18.2 8 Este 13 Este 0 1010.4 0.2 65
2019-11-26 06:00:00 18.7 7 Este 10 Este 0 1009.9 -0.6 63
2019-11-26 05:00:00 18.8 5 Este 12 Este 0 1010.2 -0.8 64
2019-11-26 04:00:00 18.7 7 Este 12 Este 0 1010.2 -1.3 65
2019-11-26 03:00:00 18.2 6 Este 12 Este 0 1010.5 -1.5 67
2019-11-26 02:00:00 18 6 Este 12 Este 0 1011 -1.3 67
2019-11-26 01:00:00 18.3 8 Este 15 Este 0 1011.5 -0.6 67
2019-11-26 00:00:00 18 8 Este 15 Este 0 1012 -0.1 68
2019-11-25 23:00:00 18.5 6 Este 13 Nordeste 0 1012.3 0.5 69
2019-11-25 22:00:00 19 5 Este 10 Este 0 1012.1 0.9 68
2019-11-25 21:00:00 19.7 0 Calma 7 Sudoeste 0 1012.1 1 70
2019-11-25 20:00:00 19.9 4 Sudoeste 11 Sudoeste 0 1011.8 0.6 70
2019-11-25 19:00:00 20.2 5 Sur 9 Sudoeste 0 1011.2 -0.2 68
2019-11-25 18:00:00 21 5 Sur 8 Sudoeste 0 1011.1 -0.4 66
2019-11-25 17:00:00 21.4 5 Sudoeste 9 Sudoeste 0 1011.2 -0.9 65
2019-11-25 16:00:00 21 3 Sudoeste 8 Oeste 0 1011.4 -1.5 65
2019-11-25 15:00:00 21 4 Noroeste 10 Noroeste 0 1011.5 -2 64
2019-11-25 14:00:00 21.5 5 Noroeste 13 Oeste 0 1012.1 -1.2 63
2019-11-25 13:00:00 21.6 7 Noroeste 13 Noroeste 0 1012.9 -0.3 63
2019-11-25 12:00:00 20.9 6 Noroeste 12 Noroeste 0 1013.5 0.6 67
2019-11-25 11:00:00 20.7 6 Noroeste 11 Noroeste 0 1013.3 1.6 67
2019-11-25 10:00:00 20.7 3 Noroeste 9 Nordeste 0 1013.2 2 67
2019-11-25 09:00:00 19.4 5 Nordeste 17 Este 0 1012.9 1.9 64
2019-11-25 08:00:00 18.2 11 Este 18 Este 0 1011.7 0.5 64
2019-11-25 07:00:00 18.2 10 Este 18 Este 0 1011.2 0 62
2019-11-25 06:00:00 18 11 Este 16 Este 0 1011 -0.5 65
2019-11-25 05:00:00 18.4 9 Este 13 Este 0 1011.2 -0.9 69
2019-11-25 04:00:00 18.8 8 Este 12 Este 0 1011.2 -1.1 70
2019-11-25 03:00:00 18.8 8 Este 10 Este 0 1011.5 -0.9 71
2019-11-25 02:00:00 19.1 7 Este 13 Este 0 1012.1 -0.5 71
2019-11-25 01:00:00 18.6 9 Este 13 Este 0 1012.3 -0.1 73
2019-11-25 00:00:00 18.9 8 Este 13 Este 0 1012.4 0.1 72
2019-11-24 23:00:00 19.3 8 Nordeste 14 Nordeste 0 1012.6 0.9 75
2019-11-24 22:00:00 19.3 10 Este 14 Este 0 1012.4 1.4 75
2019-11-24 21:00:00 19.6 6 Nordeste 10 Nordeste 0 1012.3 1 75
2019-11-24 20:00:00 19.6 4 Nordeste 6 Nordeste 0 1011.7 0.6 80
2019-11-24 19:00:00 20 0 Calma 3 Oeste 0 1011 -0.2 78
2019-11-24 18:00:00 21.1 0 Calma 9 Noroeste 0 1011.3 0.6 75
2019-11-24 17:00:00 21.9 5 Oeste 13 Noroeste 0 1011.1 -0.6 70
2019-11-24 16:00:00 22.7 6 Noroeste 13 Noroeste 0 1011.2 -1.3 69
2019-11-24 15:00:00 22.7 3 Oeste 11 Sur 0 1010.7 -2.7 61
2019-11-24 14:00:00 23.4 6 Sudoeste 13 Sudoeste 0 1011.7 -2 60
2019-11-24 13:00:00 23.9 7 Sur 15 Sur 0 1012.5 -0.9 58
2019-11-24 12:00:00 22.3 8 Sur 14 Sur 0 1013.4 0.4 66
2019-11-24 11:00:00 21.7 5 Sur 11 Sudoeste 0 1013.7 1.2 68
2019-11-24 10:00:00 20.6 0 Calma 11 Nordeste 0 1013.4 1.6 68
2019-11-24 09:00:00 18.7 9 Este 13 Este 0 1013 1.6 74
2019-11-24 08:00:00 18.2 10 Este 14 Este 0 1012.5 1.5 73
2019-11-24 07:00:00 18.2 9 Este 17 Este 0 1011.8 0.3 75
2019-11-24 06:00:00 18.1 8 Este 13 Este 0 1011.4 -0.5 77
2019-11-24 05:00:00 18.4 7 Este 14 Sudeste 0 1011 -1.2 74
2019-11-24 04:00:00 18.8 8 Este 15 Este 0 1011.5 -0.9 77
2019-11-24 03:00:00 19 9 Este 13 Este 0 1011.9 -1.2 74
2019-11-24 02:00:00 18.9 7 Este 12 Este 0 1012.2 -1 78
2019-11-24 01:00:00 18.8 9 Este 12 Este 0 1012.4 -0.6 70
2019-11-24 00:00:00 19.2 7 Este 12 Sudeste 0 1013.1 0.3 71
2019-11-23 23:00:00 19.7 6 Sudeste 16 Sudeste 0 1013.2 1.3 78
2019-11-23 22:00:00 19.6 6 Este 12 Este 0 1013 1.5 81
2019-11-23 21:00:00 20.3 2 Este 8 Norte 0 1012.8 1.8 86
2019-11-23 20:00:00 20.2 4 Norte 6 Norte 0 1011.9 1.2 86
2019-11-23 19:00:00 20.6 0 Calma 9 Sur 0 1011.5 0.8 83
2019-11-23 18:00:00 21.5 3 Sur 14 Sur 0 1011 0.3 80
2019-11-23 17:00:00 22.3 8 Sur 16 Sur 0 1010.7 -0.5 73
2019-11-23 16:00:00 23.3 8 Sur 13 Sur 0 1010.7 -1.5 72
2019-11-23 15:00:00 23.2 5 Oeste 12 Oeste 0 1010.7 -2 73
2019-11-23 14:00:00 23.3 5 Oeste 14 Oeste 0 1011.2 -1.8 74
2019-11-23 13:00:00 22.5 5 Noroeste 10 Oeste 0 1012.2 -0.5 74
2019-11-23 12:00:00 22 3 Sudoeste 9 Sudoeste 0 1012.7 0.8 75
2019-11-23 11:00:00 21.7 5 Sur 9 Sudeste 0 1013 1.3 79
2019-11-23 10:00:00 21 3 Sur 8 Sur 0 1012.7 1.4 82
2019-11-23 09:00:00 19.8 3 Este 7 Este 0 1011.9 1.2 82
2019-11-23 08:00:00 19.7 5 Este 7 Este 0 1011.7 1 82
2019-11-23 07:00:00 19.5 2 Nordeste 7 Nordeste 0 1011.3 0.7 82
2019-11-23 06:00:00 19.4 4 Nordeste 10 Este 0 1010.7 -0.1 79
2019-11-23 05:00:00 19.4 6 Nordeste 12 Este 0 1010.7 0 80
2019-11-23 04:00:00 19 6 Este 12 Este 0 1010.6 -0.5 82
2019-11-23 03:00:00 19.3 5 Sudeste 15 Sudeste 0 1010.8 -0.5 91
2019-11-23 02:00:00 19.1 5 Sudeste 13 Sudeste 0 1010.7 -0.8 93
2019-11-23 01:00:00 19.8 6 Sudeste 9 Sudeste 0 1011.1 -0.1 92
2019-11-23 00:00:00 20.1 4 Este 6 Norte 0 1011.3 0.3 91
2019-11-22 23:00:00 20.1 4 Norte 9 Norte 0 1011.5 1.2 90
2019-11-22 22:00:00 20 4 Norte 10 Norte 0 1011.2 1.5 90
2019-11-22 21:00:00 19.9 5 Norte 10 Norte 0 1011 1.5 93
2019-11-22 20:00:00 20.1 5 Norte 10 Norte 0 1010.3 1.3 89
2019-11-22 19:00:00 20 7 Norte 13 Norte 0 1009.7 0.6 89
2019-11-22 18:00:00 20.8 5 Noroeste 13 Noroeste 0 1009.5 0.2 82
2019-11-22 17:00:00 21.4 8 Noroeste 14 Noroeste 0 1009 -0.7 76
2019-11-22 16:00:00 21.9 4 Noroeste 9 Oeste 0 1009.1 -0.6 65
2019-11-22 15:00:00 22.2 4 Sudoeste 12 Sur 0 1009.3 -1.2 66
2019-11-22 14:00:00 22.6 6 Sur 14 Sudoeste 0 1009.7 -1.1 64
2019-11-22 13:00:00 22.5 6 Sur 15 Sur 0 1009.7 -0.6 66
2019-11-22 12:00:00 22.1 7 Sur 14 Sur 0 1010.5 0.7 71
2019-11-22 11:00:00 21.2 6 Sur 14 Sur 0 1010.8 1.9 71
2019-11-22 10:00:00 20 7 Sudeste 13 Sudeste 0 1010.3 2.1 75
2019-11-22 09:00:00 18.2 7 Este 13 Sudeste 0 1009.8 1.9 78
2019-11-22 08:00:00 17.7 8 Este 14 Este 0 1008.9 1.2 80
2019-11-22 07:00:00 17.6 8 Este 12 Este 0 1008.2 0.3 81
2019-11-22 06:00:00 17.8 6 Este 12 Este 0 1007.9 -0.1 84
2019-11-22 05:00:00 17.8 9 Este 14 Este 0 1007.7 -0.4 82
2019-11-22 04:00:00 18.1 10 Nordeste 16 Nordeste 0 1007.9 -0.1 78
2019-11-22 03:00:00 18.2 9 Este 16 Este 0 1008 -0.2 83
2019-11-22 02:00:00 18.3 6 Este 14 Sudeste 0 1008.1 -0.3 86
2019-11-22 01:00:00 18.5 7 Sudeste 12 Sudeste 0 1008 -0.6 91
2019-11-22 00:00:00 19 6 Este 10 Este 0 1008.2 -0.2 92
2019-11-21 23:00:00 19.1 6 Sudeste 10 Sudeste 0.4 1008.4 0.3 96
2019-11-21 22:00:00 19.2 0 Calma 4 Norte 0 1008.6 0.8 96
2019-11-21 21:00:00 19.4 3 Noroeste 7 Noroeste 0.9 1008.4 1.1 96
2019-11-21 20:00:00 19.6 3 Noroeste 7 Nordeste 0.1 1008.1 0.6 94
2019-11-21 19:00:00 19.6 2 Norte 8 Noroeste 0.4 1007.8 0.3 95
2019-11-21 18:00:00 19.9 6 Nordeste 10 Nordeste 0.1 1007.3 -0.1 93
2019-11-21 17:00:00 19.7 3 Norte 12 Noroeste 0.4 1007.5 -0.6 93
2019-11-21 16:00:00 21 5 Noroeste 15 Noroeste 0 1007.5 -1.3 80
2019-11-21 15:00:00 21 8 Nordeste 15 Norte 0 1007.4 -2.4 77
2019-11-21 14:00:00 21.8 6 Noroeste 15 Noroeste 0 1008.1 -1.7 73
2019-11-21 13:00:00 21.5 6 Noroeste 14 Oeste 0 1008.8 -1 74
2019-11-21 12:00:00 20.9 6 Noroeste 12 Noroeste 0 1009.8 0.4 71
2019-11-21 11:00:00 20.5 5 Noroeste 11 Norte 0 1009.8 0.7 68
2019-11-21 10:00:00 19.9 2 Norte 12 Norte 0 1009.8 0.8 69
2019-11-21 09:00:00 19.1 6 Norte 12 Nordeste 0 1009.4 1 74
2019-11-21 08:00:00 18.5 6 Nordeste 12 Este 0 1009.1 0.7 72
2019-11-21 07:00:00 -- -- -- -- -- -- -- -- --
2019-11-21 06:00:00 -- -- -- -- -- -- -- -- --
2019-11-21 05:00:00 -- -- -- -- -- -- -- -- --
2019-11-21 04:00:00 -- -- -- -- -- -- -- -- --
2019-11-21 03:00:00 -- -- -- -- -- -- -- -- --
2019-11-21 02:00:00 -- -- -- -- -- -- -- -- --
2019-11-21 01:00:00 -- -- -- -- -- -- -- -- --
2019-11-21 00:00:00 -- -- -- -- -- -- -- -- --
2019-11-20 23:00:00 -- -- -- -- -- -- -- -- --
2019-11-20 22:00:00 -- -- -- -- -- -- -- -- --
2019-11-20 21:00:00 -- -- -- -- -- -- -- -- --
2019-11-20 20:00:00 -- -- -- -- -- -- -- -- --
2019-11-20 19:00:00 -- -- -- -- -- -- -- -- --
2019-11-20 18:00:00 19.8 6 Sur 11 Sudeste 0 1008.8 -0.3 84
2019-11-20 17:00:00 20.2 7 Sur 12 Sur 0 1008.8 -0.7 85
2019-11-20 16:00:00 20.9 5 Sur 11 Sur 0 1008.7 -1.7 85
2019-11-20 15:00:00 20.7 4 Oeste 12 Sudoeste 0 1009.1 -2 86
2019-11-20 14:00:00 20.2 2 Sudeste 15 Norte 0 1009.5 -1.8 89
2019-11-20 13:00:00 21.3 5 Oeste 10 Oeste 0 1010.4 -1 82
2019-11-20 12:00:00 20.7 5 Noroeste 10 Oeste 0 1011.1 0.3 76
2019-11-20 11:00:00 20.5 4 Noroeste 9 Noroeste 0 1011.3 0.7 78
2019-11-20 10:00:00 19.1 6 Norte 15 Noroeste 0 1011.4 1.2 81
2019-11-20 09:00:00 19 5 Nordeste 8 Nordeste 0 1010.8 0.8 76
2019-11-20 08:00:00 17.9 4 Este 12 Este 0 1010.6 0.5 77
2019-11-20 07:00:00 17.3 7 Este 12 Nordeste 0 1010.2 -0.3 76
2019-11-20 06:00:00 17.3 7 Nordeste 11 Este 0 1010 -0.8 75
2019-11-20 05:00:00 17.5 9 Nordeste 14 Nordeste 0 1010.1 -0.8 73
2019-11-20 04:00:00 17.5 4 Nordeste 13 Este 0 1010.5 -0.9 74
2019-11-20 03:00:00 17.7 6 Nordeste 11 Este 0 1010.8 -0.8 75
2019-11-20 02:00:00 17.3 7 Este 11 Este 0 1010.9 -0.8 77
2019-11-20 01:00:00 17.5 6 Este 10 Este 0 1011.4 -0.4 78
2019-11-20 00:00:00 17.8 6 Este 12 Este 0 1011.6 -0.1 80
2019-11-19 23:00:00 18.1 6 Este 11 Este 0 1011.7 0.4 79
2019-11-19 22:00:00 18.5 6 Este 12 Este 0 1011.8 0.6 78
2019-11-19 21:00:00 18.7 5 Este 9 Este 0 1011.7 0.5 80
2019-11-19 20:00:00 19.2 4 Este 15 Noroeste 0 1011.3 0.1 81
2019-11-19 19:00:00 19.3 9 Noroeste 23 Noroeste 0 1011.2 -0.3 83
2019-11-19 18:00:00 20 8 Noroeste 20 Noroeste 0 1011.2 -0.2 71
2019-11-19 17:00:00 20.8 9 Noroeste 21 Noroeste 0 1011.2 -0.9 70
2019-11-19 16:00:00 21.3 8 Noroeste 17 Noroeste 0 1011.5 -1.3 65
2019-11-19 15:00:00 21.3 10 Noroeste 22 Noroeste 0 1011.4 -2.5 64
2019-11-19 14:00:00 21.8 11 Noroeste 20 Noroeste 0 1012.1 -2.2 65
2019-11-19 13:00:00 21.8 10 Noroeste 18 Noroeste 0 1012.8 -1.6 66
2019-11-19 12:00:00 21.7 7 Noroeste 15 Noroeste 0 1013.9 -0.1 65
2019-11-19 11:00:00 20.3 6 Sudoeste 9 Sudoeste 0 1014.3 0.8 62
2019-11-19 10:00:00 19.2 4 Sudoeste 8 Sur 0 1014.4 1.1 67
2019-11-19 09:00:00 17.5 6 Este 13 Este 0 1014 1.2 67
2019-11-19 08:00:00 16.9 8 Este 14 Este 0 1013.5 0.6 67
2019-11-19 07:00:00 17 7 Este 14 Este 0 1013.3 0.3 67
2019-11-19 06:00:00 17.1 8 Este 12 Este 0 1012.8 -0.7 66
2019-11-19 05:00:00 17.2 9 Este 16 Este 0 1012.9 -1 65
2019-11-19 04:00:00 17.3 9 Este 15 Nordeste 0 1013 -1.1 66
2019-11-19 03:00:00 17.5 10 Este 14 Este 0 1013.5 -0.9 67
2019-11-19 02:00:00 17.7 9 Este 13 Este 0 1013.9 -1 72
2019-11-19 01:00:00 18.2 8 Este 12 Este 0 1014.1 -0.4 69
2019-11-19 00:00:00 18.2 6 Este 17 Sudeste 0 1014.4 0.1 72
2019-11-18 23:00:00 18.4 8 Este 16 Este 0 1014.9 1 67
2019-11-18 22:00:00 18.3 8 Este 14 Sudeste 0 1014.5 1 66
2019-11-18 21:00:00 18.8 5 Nordeste 14 Norte 0 1014.3 1 61
2019-11-18 20:00:00 18.9 5 Este 10 Este 0 1013.9 0.7 71
2019-11-18 19:00:00 19.6 5 Sudeste 8 Sudeste 0 1013.5 0.4 69
2019-11-18 18:00:00 20.8 4 Sur 9 Sudoeste 0 1013.3 0.3 67
2019-11-18 17:00:00 21.6 3 Sudoeste 10 Sudoeste 0 1013.2 0 65
2019-11-18 16:00:00 22 4 Sudoeste 12 Sur 0 1013.1 -0.8 64
2019-11-18 15:00:00 22.6 7 Sur 15 Sudoeste 0 1013 -1.7 61
2019-11-18 14:00:00 23 6 Sur 14 Sur 0 1013.2 -1.8 61
2019-11-18 13:00:00 22.3 4 Sudoeste 12 Sudoeste 0 1013.9 -0.7 62
2019-11-18 12:00:00 22.3 6 Sur 13 Sudeste 0 1014.7 0.2 63
2019-11-18 11:00:00 21.3 6 Sur 13 Sur 0 1015 1 66
2019-11-18 10:00:00 20 7 Sudeste 12 Sudeste 0 1014.6 1.2 71
2019-11-18 09:00:00 18.4 7 Este 14 Nordeste 0 1014.5 1.6 75
2019-11-18 08:00:00 17.7 7 Sudeste 13 Este 0 1014 0.8 74
2019-11-18 07:00:00 18 5 Este 15 Sudeste 0 1013.4 0.3 72
2019-11-18 06:00:00 17.7 9 Este 20 Norte 0 1012.9 -0.5 66
2019-11-18 05:00:00 18.6 9 Norte 31 Norte 0 1013.2 -0.6 64
2019-11-18 04:00:00 18.8 10 Norte 30 Oeste 0 1013.1 -0.6 63
2019-11-18 03:00:00 18.7 8 Norte 29 Norte 0 1013.4 -0.8 59
2019-11-18 02:00:00 18.3 8 Norte 38 Norte 0 1013.8 -0.5 63
2019-11-18 01:00:00 18.6 9 Norte 30 Norte 0 1013.7 -0.7 63
2019-11-18 00:00:00 19.1 6 Nordeste 24 Nordeste 0 1014.2 0.4 63
2019-11-17 23:00:00 19.1 6 Nordeste 28 Norte 0 1014.3 0.9 63
2019-11-17 22:00:00 19.3 9 Norte 27 Nordeste 0 1014.4 1.4 62
2019-11-17 21:00:00 19.3 5 Norte 22 Nordeste 0 1013.8 0.6 63
2019-11-17 20:00:00 19.1 3 Nordeste 26 Nordeste 0 1013.4 1.1 64
2019-11-17 19:00:00 19.7 5 Norte 23 Norte 0 1013 0.5 61
2019-11-17 18:00:00 20.9 3 Oeste 21 Sudoeste 0 1013.2 0.8 66
2019-11-17 17:00:00 20.6 6 Sur 38 Sudeste 0 1012.3 -0.9 62
2019-11-17 16:00:00 20.5 5 Sudeste 36 Sur 0 1012.5 -1.3 60
2019-11-17 15:00:00 21.4 13 Sudeste 31 Sudeste 0 1012.4 -2.4 60
2019-11-17 14:00:00 21.2 6 Oeste 18 Noroeste 0 1013.2 -1.9 67
2019-11-17 13:00:00 21.9 4 Sudoeste 15 Sudoeste 0 1013.8 -0.9 63
2019-11-17 12:00:00 21.2 5 Sur 14 Sudoeste 0 1014.8 0.3 64
2019-11-17 11:00:00 22 6 Sur 22 Nordeste 0 1015.1 1.4 61
2019-11-17 10:00:00 20.3 4 Este 23 Noroeste 0 1014.7 1.4 61
2019-11-17 09:00:00 19.2 9 Norte 24 Norte 0 1014.5 1.7 62
2019-11-17 08:00:00 17.5 8 Este 16 Nordeste 0 1013.7 0.9 68
2019-11-17 07:00:00 18.2 9 Este 21 Este 0 1013.3 0.9 67
2019-11-17 06:00:00 19 5 Este 26 Nordeste 0 1012.8 -0.1 61
2019-11-17 05:00:00 19.1 12 Norte 28 Norte 0 1012.8 0.3 62
2019-11-17 04:00:00 18.9 4 Norte 22 Este 0 1012.4 -0.4 61
2019-11-17 03:00:00 18.4 8 Este 17 Este 0 1012.9 -0.1 67
2019-11-17 02:00:00 18.4 9 Este 17 Este 0 1012.5 -0.4 68
2019-11-17 01:00:00 18.8 3 Este 21 Norte 0 1012.8 0.1 67
2019-11-17 00:00:00 19.2 6 Este 21 Nordeste 0 1013 0.4 64
2019-11-16 23:00:00 19.8 8 Este 28 Este 0 1012.9 0.9 57
2019-11-16 22:00:00 19.3 11 Este 36 Nordeste 0 1012.7 1 58
2019-11-16 21:00:00 19.8 6 Este 33 Nordeste 0 1012.6 1.4 59
2019-11-16 20:00:00 19.7 12 Sudeste 35 Sudeste 0 1012 0.6 58
2019-11-16 19:00:00 19.8 5 Este 18 Nordeste 0 1011.7 0.6 64
2019-11-16 18:00:00 20.6 9 Sur 22 Noroeste 0 1011.2 0.4 64
2019-11-16 17:00:00 21.6 6 Sur 34 Oeste 0 1011.4 0.1 61
2019-11-16 16:00:00 22 4 Sur 26 Sudeste 0 1011.1 -1.1 60
2019-11-16 15:00:00 22.6 6 Este 55 Norte 0 1010.8 -2 50
2019-11-16 14:00:00 22.1 10 Noroeste 31 Norte 0 1011.3 -2 57
2019-11-16 13:00:00 22.4 10 Norte 35 Noroeste 0 1012.2 -1.1 52
2019-11-16 12:00:00 22.3 8 Noroeste 28 Norte 0 1012.8 0.1 59
2019-11-16 11:00:00 20.7 9 Noroeste 32 Noroeste 0 1013.3 1.4 57
2019-11-16 10:00:00 19.5 10 Norte 30 Norte 0 1013.3 1.7 57
2019-11-16 09:00:00 19.3 8 Norte 43 Norte 0 1012.7 1.5 56
2019-11-16 08:00:00 18.7 8 Norte 28 Noroeste 0 1011.9 0.8 57
2019-11-16 07:00:00 18.8 10 Nordeste 25 Norte 0 1011.6 0.7 62
2019-11-16 06:00:00 18.1 0 Calma 25 Noroeste 0 1011.2 0 64
2019-11-16 05:00:00 18.4 3 Noroeste 26 Sudeste 0 1011.1 -0.2 63
2019-11-16 04:00:00 18.9 10 Norte 46 Nordeste 0 1010.9 -0.5 60
2019-11-16 03:00:00 19 9 Nordeste 21 Norte 0 1011.2 -0.2 59
2019-11-16 02:00:00 19.1 7 Nordeste 24 Noroeste 0 1011.3 -0.1 57
2019-11-16 01:00:00 19.4 6 Nordeste 23 Norte 0 1011.4 0.7 56
2019-11-16 00:00:00 19.4 5 Norte 29 Norte 0 1011.4 1.4 57
2019-11-15 23:00:00 18.9 9 Nordeste 39 Norte 0 1011.4 1.6 58
2019-11-15 22:00:00 20 7 Nordeste 32 Norte 0 1010.7 1.3 49
2019-11-15 21:00:00 19.3 9 Norte 37 Norte 0 1010 1.4 53
2019-11-15 20:00:00 19.2 4 Nordeste 33 Noroeste 0 1009.8 1.2 58
2019-11-15 19:00:00 19.6 4 Norte 35 Norte 0 1009.4 0.8 56
2019-11-15 18:00:00 20.2 2 Norte 34 Este 0 1008.6 -0.6 56
2019-11-15 17:00:00 21 6 Norte 33 Este 0 1008.6 -0.9 56
2019-11-15 16:00:00 22 5 Sudeste 24 Este 0 1008.6 -1.5 56
2019-11-15 15:00:00 22.3 7 Oeste 18 Oeste 0 1009.2 -1.4 65
2019-11-15 14:00:00 22.8 5 Oeste 20 Oeste 0 1009.5 -2 59
2019-11-15 13:00:00 23.4 4 Noroeste 18 Oeste 0 1010.1 -1 56
2019-11-15 12:00:00 22.6 3 Norte 40 Sudeste 0 1010.6 -0.2 55
2019-11-15 11:00:00 22 5 Norte 28 Nordeste 0 1011.5 1 59
2019-11-15 10:00:00 21.6 7 Norte 18 Norte 0 1011.1 1.2 57
2019-11-15 09:00:00 20.1 5 Nordeste 14 Norte 0 1010.8 1.3 61
2019-11-15 08:00:00 19.7 8 Nordeste 14 Norte 0 1010.5 1.1 61
2019-11-15 07:00:00 19.4 6 Este 12 Norte 0 1009.9 0.4 62
2019-11-15 06:00:00 20.1 6 Norte 34 Nordeste 0 1009.5 -0.2 56
2019-11-15 05:00:00 20.3 10 Norte 33 Norte 0 1009.4 -0.2 54
2019-11-15 04:00:00 20.1 5 Norte 33 Norte 0 1009.5 -0.6 56
2019-11-15 03:00:00 20.2 3 Norte 38 Noroeste 0 1009.7 -0.6 53
2019-11-15 02:00:00 20 3 Sudeste 37 Norte 0 1009.6 -0.5 57
2019-11-15 01:00:00 20 3 Sur 28 Nordeste 0 1010.1 -0.3 58
2019-11-15 00:00:00 20.5 6 Norte 33 Norte 0 1010.3 0.5 60
2019-11-14 23:00:00 20.8 5 Sudeste 41 Nordeste 0 1010.1 0.6 58
2019-11-14 22:00:00 20.6 3 Nordeste 31 Norte 0 1010.4 1.3 60
2019-11-14 21:00:00 21 4 Norte 34 Norte 0 1009.8 0.9 61
2019-11-14 20:00:00 20.4 9 Norte 33 Nordeste 0 1009.5 0.6 64
2019-11-14 19:00:00 20.9 3 Norte 29 Este 0 1009.1 0.2 65
2019-11-14 18:00:00 21.1 5 Sur 38 Sur 0 1008.9 -0.1 58
2019-11-14 17:00:00 23 3 Sudoeste 19 Sudeste 0 1008.9 -0.4 63
2019-11-14 16:00:00 23.9 5 Oeste 12 Oeste 0 1008.9 -1 60
2019-11-14 15:00:00 24.1 3 Sur 13 Sur 0 1009 -1.7 60
2019-11-14 14:00:00 24 9 Sur 22 Sudeste 0 1009.3 -1.5 63
2019-11-14 13:00:00 23.9 8 Sur 16 Sudeste 0 1009.9 -0.5 62
2019-11-14 12:00:00 22.6 5 Sur 9 Sur 0 1010.7 0.7 67
2019-11-14 11:00:00 21.6 2 Oeste 15 Sur 0 1010.8 1.5 69
2019-11-14 10:00:00 21.3 8 Sur 17 Sudeste 0 1010.4 1.2 71
2019-11-14 09:00:00 19.8 5 Este 13 Este 0 1010 1.3 72
2019-11-14 08:00:00 19.1 6 Este 15 Este 0 1009.3 0.6 74
2019-11-14 07:00:00 19.2 6 Este 14 Sudeste 0 1009.2 0.4 74
2019-11-14 06:00:00 19.3 8 Sudeste 14 Este 0 1008.7 -0.1 74
2019-11-14 05:00:00 19.1 8 Este 14 Este 0 1008.7 -1.1 74
2019-11-14 04:00:00 19.1 5 Sudeste 13 Este 0 1008.8 -1.2 75
2019-11-14 03:00:00 19.3 6 Sudeste 15 Este 0 1008.8 -1.7 74
2019-11-14 02:00:00 19.1 6 Este 13 Este 0 1009.8 -1.1 74
2019-11-14 01:00:00 19.5 5 Este 12 Este 0 1010 -0.8 74
2019-11-14 00:00:00 19.6 5 Nordeste 13 Este 0 1010.5 0.1 73
2019-11-13 23:00:00 19.9 6 Este 12 Este 0 1010.9 1.4 72
2019-11-13 22:00:00 20.3 7 Sudeste 11 Sudeste 0 1010.8 0.8 74
2019-11-13 21:00:00 20.2 5 Sudeste 11 Este 0 1010.4 0.8 74
2019-11-13 20:00:00 20.1 6 Sudeste 9 Sudeste 0 1009.5 -0.4 75
2019-11-13 19:00:00 21.1 0 Calma 11 Sudeste 0 1010 -0.2 71
2019-11-13 18:00:00 21.5 3 Sudeste 12 Sudeste 0 1009.6 -0.6 68
2019-11-13 17:00:00 22.5 7 Sur 14 Sudeste 0 1009.9 -0.4 65
2019-11-13 16:00:00 23.3 5 Sur 14 Sudoeste 0 1010.2 -0.6 64
2019-11-13 15:00:00 23.5 6 Sur 17 Sur 0 1010.2 -1.1 65
2019-11-13 14:00:00 24 8 Sur 16 Sudoeste 0 1010.3 -1.4 65
2019-11-13 13:00:00 23.8 8 Sudoeste 14 Oeste 0 1010.8 -0.9 67
2019-11-13 12:00:00 22.9 7 Sur 18 Sur 0 1011.3 0.1 70
2019-11-13 11:00:00 22.8 8 Sur 15 Sudeste 0 1011.7 1.5 70
2019-11-13 10:00:00 22.1 8 Sur 14 Sudeste 0 1011.7 2 71
2019-11-13 09:00:00 20.7 4 Sudeste 18 Sudeste 0 1011.2 1.8 74
2019-11-13 08:00:00 20 8 Sudeste 17 Sudeste 0 1010.2 1.1 77
2019-11-13 07:00:00 20 7 Sudeste 15 Este 0 1009.7 0.4 73
2019-11-13 06:00:00 19.8 8 Este 14 Este 0 1009.4 0.1 68
2019-11-13 05:00:00 19.8 8 Este 15 Este 0 1009.1 -0.3 69
2019-11-13 04:00:00 19.7 8 Sudeste 14 Este 0 1009.3 -0.2 77
2019-11-13 03:00:00 19.7 6 Este 13 Este 0 1009.3 -0.7 78
2019-11-13 02:00:00 19.8 7 Este 14 Sudeste 0 1009.4 -0.9 83
2019-11-13 01:00:00 20 10 Sudeste 18 Sudeste 0 1009.5 -0.7 86
2019-11-13 00:00:00 20 6 Sudeste 12 Sudeste 0 1010 0.3 87
2019-11-12 23:00:00 20.4 9 Sudeste 19 Sudeste 0 1010.3 0.2 83
2019-11-12 22:00:00 20.3 8 Sudeste 15 Sur 0 1010.2 0.3 78
2019-11-12 21:00:00 20.2 8 Este 13 Sur 0 1009.7 0.2 80
2019-11-12 20:00:00 20.9 8 Sudeste 23 Sur 0 1010.1 0.2 78
2019-11-12 19:00:00 21.2 11 Sudeste 18 Sur 0 1009.9 0.1 72
2019-11-12 18:00:00 22.1 5 Sur 19 Sudeste 0 1009.5 -0.5 70
2019-11-12 17:00:00 22.7 12 Sur 28 Sudeste 0 1009.9 -0.9 65
2019-11-12 16:00:00 23.8 14 Sur 22 Sur 0 1009.8 -1.7 60
2019-11-12 15:00:00 24 9 Sur 18 Sudeste 0 1010 -2.3 61
2019-11-12 14:00:00 24.3 11 Sur 20 Sur 0 1010.8 -1.8 63
2019-11-12 13:00:00 24 8 Sur 13 Sur 0 1011.5 -1.2 63
2019-11-12 12:00:00 23.3 8 Sur 21 Sur 0 1012.3 0 67
2019-11-12 11:00:00 22.8 9 Sur 18 Sudeste 0 1012.6 0.6 69
2019-11-12 10:00:00 20.8 0 Calma 9 Noroeste 0 1012.7 1.2 75
2019-11-12 09:00:00 20.2 6 Sudeste 19 Sudeste 0 1012.3 1.2 80
2019-11-12 08:00:00 19.4 10 Sudeste 17 Sudeste 0 1012 0.6 84
2019-11-12 07:00:00 18.9 3 Sudeste 16 Sur 0 1011.5 -0.5 85
2019-11-12 06:00:00 19.4 10 Sudeste 21 Sudeste 0 1011.1 -1.5 81
2019-11-12 05:00:00 19.2 6 Sudeste 17 Este 0 1011.4 -1.9 80
2019-11-12 04:00:00 19.4 5 Sudeste 14 Sudeste 0 1012 -1.7 80
2019-11-12 03:00:00 19.4 8 Sudeste 15 Sudeste 0 1012.6 -1.2 80
2019-11-12 02:00:00 19.4 6 Sudeste 13 Sudeste 0 1013.3 -0.2 78
2019-11-12 01:00:00 19.6 4 Sudeste 17 Sudeste 0 1013.7 0.1 77
2019-11-12 00:00:00 20 6 Sudeste 17 Sudeste 0 1013.8 0.7 74
2019-11-11 23:00:00 19.9 7 Este 17 Este 0 1013.5 0.4 72
2019-11-11 22:00:00 19.8 6 Sudeste 18 Sudeste 0 1013.6 0.7 73
2019-11-11 21:00:00 20.9 7 Sudeste 35 Este 0 1013.1 0.6 65
2019-11-11 20:00:00 21.4 13 Sudeste 37 Sudeste 0 1013.1 0.6 63
2019-11-11 19:00:00 21.8 9 Sudeste 41 Sudeste 0 1012.9 -0.4 58
2019-11-11 18:00:00 21.8 8 Sur 22 Sudoeste 0 1012.5 -1.1 67
2019-11-11 17:00:00 22.8 10 Sudeste 19 Sudeste 0 1012.5 -1.6 60
2019-11-11 16:00:00 23.7 9 Sur 18 Sur 0 1013.3 -1.3 59
2019-11-11 15:00:00 24.4 6 Sudoeste 21 Sur 0 1013.6 -2.2 60
2019-11-11 14:00:00 24.5 11 Sur 30 Sur 0 1014.1 -1.9 59
2019-11-11 13:00:00 24.3 13 Sur 28 Sur 0 1014.6 -1.5 56
2019-11-11 12:00:00 23.6 11 Sur 21 Sur 0 1015.8 0.1 60
2019-11-11 11:00:00 22.8 7 Sudoeste 15 Sur 0 1016 0.7 63
2019-11-11 10:00:00 21.7 6 Sudoeste 20 Sudeste 0 1016.1 1.1 68
2019-11-11 09:00:00 20.6 8 Este 19 Sudeste 0 1015.7 0.8 68
2019-11-11 08:00:00 19.8 11 Sudeste 21 Sudeste 0 1015.3 0.8 71
2019-11-11 07:00:00 20.1 9 Sudeste 28 Norte 0 1015 0.2 64
2019-11-11 06:00:00 20.5 14 Norte 43 Norte 0 1014.9 -0.4 52
2019-11-11 05:00:00 20.6 11 Nordeste 40 Nordeste 0 1014.5 -1.3 56
2019-11-11 04:00:00 20.9 17 Nordeste 44 Este 0 1014.8 -1.9 56
2019-11-11 03:00:00 20.5 0 Calma 45 Norte 0 1015.3 -1.5 56
2019-11-11 02:00:00 20.6 8 Sudeste 49 Sudeste 0 1015.8 -1.2 57
2019-11-11 01:00:00 20.6 10 Sudeste 44 Sudeste 0 1016.7 -0.5 59
2019-11-11 00:00:00 21.2 13 Norte 43 Nordeste 0 1016.8 0 56